createdAt,value
2022-10-04T00:00:09.570Z,100507.75
2022-10-04T00:02:36.668Z,100503.38
2022-10-04T00:05:08.693Z,100505.06
2022-10-04T00:07:38.587Z,100480.22
2022-10-04T00:10:18.645Z,100501.94
2022-10-04T00:13:00.006Z,100509.50
2022-10-04T00:15:29.829Z,100502.56
2022-10-04T00:18:19.228Z,100505.06
2022-10-04T00:20:50.412Z,100504.00
2022-10-04T00:23:31.582Z,100506.53
2022-10-04T00:25:59.541Z,100505.50
2022-10-04T00:28:25.842Z,100509.78
2022-10-04T00:31:10.121Z,100503.38
2022-10-04T00:33:42.562Z,100514.63
2022-10-04T00:36:23.905Z,100512.00
2022-10-04T00:39:05.227Z,100516.19
2022-10-04T00:41:50.709Z,100513.22
2022-10-04T00:44:33.915Z,100505.50
2022-10-04T00:47:01.529Z,100509.47
2022-10-04T00:49:40.270Z,100513.47
2022-10-04T00:52:15.870Z,100511.34
2022-10-04T00:54:45.121Z,100501.22
2022-10-04T00:57:16.319Z,100505.81
2022-10-04T01:00:03.697Z,100506.09
2022-10-04T01:02:46.807Z,100500.34
2022-10-04T01:05:27.293Z,100496.44
2022-10-04T01:08:02.470Z,100508.19
2022-10-04T01:10:43.276Z,100497.19
2022-10-04T01:13:14.499Z,100493.84
2022-10-04T01:15:58.244Z,100499.16
2022-10-04T01:18:24.437Z,100500.41
2022-10-04T01:21:21.260Z,100509.22
2022-10-04T01:23:49.881Z,100512.97
2022-10-04T01:26:34.840Z,100511.50
2022-10-04T01:29:17.601Z,100500.22
2022-10-04T01:31:49.986Z,100495.19
2022-10-04T01:34:18.931Z,100495.06
2022-10-04T01:36:47.322Z,100469.09
2022-10-04T01:39:15.440Z,100493.41
2022-10-04T01:42:05.376Z,100481.97
2022-10-04T01:44:38.136Z,100488.37
2022-10-04T01:47:09.025Z,100483.94
2022-10-04T01:49:38.585Z,100483.66
2022-10-04T01:52:22.537Z,100485.63
2022-10-04T01:54:53.574Z,100485.75
2022-10-04T01:57:23.298Z,100489.31
2022-10-04T01:59:54.589Z,100494.13
2022-10-04T02:03:00.143Z,100487.22
2022-10-04T02:05:30.463Z,100481.88
2022-10-04T02:07:57.436Z,100482.81
2022-10-04T02:10:25.292Z,100482.94
2022-10-04T02:12:54.678Z,100487.31
2022-10-04T02:15:23.220Z,100493.09
2022-10-04T02:17:50.018Z,100498.41
2022-10-04T02:20:21.311Z,100502.72
2022-10-04T02:22:51.162Z,100491.72
2022-10-04T02:25:19.594Z,100489.62
2022-10-04T02:27:46.083Z,100507.03
2022-10-04T02:30:13.819Z,100517.69
2022-10-04T02:32:57.658Z,100517.28
2022-10-04T02:35:34.471Z,100513.62
2022-10-04T02:38:08.016Z,100515.28
2022-10-04T02:40:45.981Z,100487.63
2022-10-04T02:43:16.596Z,100498.97
2022-10-04T02:45:51.299Z,100510.47
2022-10-04T02:48:27.031Z,100492.97
2022-10-04T02:50:55.684Z,100513.19
2022-10-04T02:53:47.035Z,100518.41
2022-10-04T02:56:13.651Z,100513.28
2022-10-04T02:58:41.103Z,100514.44
2022-10-04T03:01:07.503Z,100500.56
2022-10-04T03:03:40.702Z,100513.25
2022-10-04T03:06:11.838Z,100493.34
2022-10-04T03:08:44.176Z,100512.53
2022-10-04T03:11:11.831Z,100504.69
2022-10-04T03:13:39.921Z,100512.72
2022-10-04T03:16:06.584Z,100510.63
2022-10-04T03:18:35.341Z,100517.12
2022-10-04T03:21:10.127Z,100514.63
2022-10-04T03:23:37.750Z,100506.75
2022-10-04T03:26:19.244Z,100482.75
2022-10-04T03:28:46.193Z,100513.12
2022-10-04T03:31:14.160Z,100507.69
2022-10-04T03:33:40.767Z,100501.19
2022-10-04T03:36:07.615Z,100504.81
2022-10-04T03:38:35.374Z,100480.72
2022-10-04T03:41:02.231Z,100496.38
2022-10-04T03:43:31.808Z,100501.78
2022-10-04T03:45:59.238Z,100510.47
2022-10-04T03:48:35.540Z,100513.62
2022-10-04T03:51:04.349Z,100499.25
2022-10-04T03:53:43.462Z,100524.03
2022-10-04T03:56:17.521Z,100502.78
2022-10-04T03:58:43.983Z,100504.97
2022-10-04T04:01:20.506Z,100521.75
2022-10-04T04:03:55.184Z,100520.72
2022-10-04T04:06:23.395Z,100519.88
2022-10-04T04:08:53.353Z,100494.81
2022-10-04T04:11:25.880Z,100517.75
2022-10-04T04:14:00.562Z,100513.56
2022-10-04T04:16:28.366Z,100518.16
2022-10-04T04:18:58.800Z,100496.25
2022-10-04T04:21:26.019Z,100513.56
2022-10-04T04:24:05.452Z,100512.00
2022-10-04T04:26:44.039Z,100520.88
2022-10-04T04:29:27.810Z,100516.66
2022-10-04T04:32:13.282Z,100511.44
2022-10-04T04:34:53.612Z,100509.56
2022-10-04T04:37:20.476Z,100514.81
2022-10-04T04:39:51.914Z,100510.16
2022-10-04T04:42:21.386Z,100515.53
2022-10-04T04:44:53.981Z,100507.25
2022-10-04T04:47:34.844Z,100527.91
2022-10-04T04:50:34.547Z,100528.63
2022-10-04T04:53:05.718Z,100531.97
2022-10-04T04:55:56.706Z,100537.75
2022-10-04T04:58:37.457Z,100530.66
2022-10-04T05:01:16.036Z,100539.75
2022-10-04T05:03:42.395Z,100542.09
2022-10-04T05:06:25.872Z,100517.56
2022-10-04T05:08:52.183Z,100550.16
2022-10-04T05:11:21.517Z,100557.16
2022-10-04T05:13:56.037Z,100550.06
2022-10-04T05:16:49.399Z,100566.00
2022-10-04T05:19:27.881Z,100559.63
2022-10-04T05:21:56.019Z,100569.13
2022-10-04T05:24:28.441Z,100567.16
2022-10-04T05:27:03.253Z,100569.56
2022-10-04T05:29:34.398Z,100569.50
2022-10-04T05:32:25.962Z,100573.13
2022-10-04T05:34:54.558Z,100567.88
2022-10-04T05:37:40.143Z,100564.34
2022-10-04T05:40:15.582Z,100572.09
2022-10-04T05:42:46.275Z,100576.28
2022-10-04T05:45:23.206Z,100563.50
2022-10-04T05:47:52.006Z,100580.38
2022-10-04T05:50:35.462Z,100583.63
2022-10-04T05:53:27.265Z,100568.59
2022-10-04T05:56:18.351Z,100588.06
2022-10-04T05:59:10.947Z,100583.06
2022-10-04T06:01:48.517Z,100588.09
2022-10-04T06:04:39.582Z,100571.12
2022-10-04T06:07:27.228Z,100593.53
2022-10-04T06:10:00.665Z,100588.81
2022-10-04T06:12:31.670Z,100600.66
2022-10-04T06:15:02.325Z,100603.16
2022-10-04T06:18:08.069Z,100590.81
2022-10-04T06:20:46.738Z,100582.41
2022-10-04T06:23:18.555Z,100591.84
2022-10-04T06:26:01.654Z,100601.06
2022-10-04T06:28:59.959Z,100596.87
2022-10-04T06:31:46.938Z,100607.56
2022-10-04T06:34:29.824Z,100616.28
2022-10-04T06:37:18.715Z,100623.94
2022-10-04T06:40:15.935Z,100619.09
2022-10-04T06:42:54.127Z,100601.28
2022-10-04T06:45:44.902Z,100618.88
2022-10-04T06:48:14.451Z,100622.34
2022-10-04T06:51:02.914Z,100630.13
2022-10-04T06:53:52.065Z,100623.59
2022-10-04T06:56:24.354Z,100626.75
2022-10-04T06:58:59.727Z,100635.25
2022-10-04T07:01:36.631Z,100635.22
2022-10-04T07:04:09.097Z,100633.50
2022-10-04T07:07:18.235Z,100641.22
2022-10-04T07:09:45.909Z,100647.19
2022-10-04T07:12:15.869Z,100658.47
2022-10-04T07:14:47.671Z,100649.97
2022-10-04T07:17:19.878Z,100648.66
2022-10-04T07:19:50.138Z,100644.69
2022-10-04T07:22:22.716Z,100658.25
2022-10-04T07:25:46.672Z,100658.91
2022-10-04T07:28:36.268Z,100671.13
2022-10-04T07:31:09.673Z,100667.81
2022-10-04T07:33:43.386Z,100673.97
2022-10-04T07:36:12.794Z,100669.47
2022-10-04T07:38:51.986Z,100680.22
2022-10-04T07:41:26.966Z,100686.75
2022-10-04T07:43:58.942Z,100669.09
2022-10-04T07:46:40.174Z,100697.06
2022-10-04T07:49:13.618Z,100691.13
2022-10-04T07:52:03.145Z,100674.25
2022-10-04T07:55:07.381Z,100691.94
2022-10-04T07:57:36.276Z,100694.16
2022-10-04T08:00:10.970Z,100692.44
2022-10-04T08:02:44.142Z,100700.84
2022-10-04T08:05:21.903Z,100689.38
2022-10-04T08:08:13.119Z,100712.16
2022-10-04T08:11:01.697Z,100717.50
2022-10-04T08:13:30.620Z,100728.16
2022-10-04T08:16:03.605Z,100727.22
2022-10-04T08:18:39.679Z,100721.19
2022-10-04T08:21:07.892Z,100727.38
2022-10-04T08:23:53.168Z,100720.41
2022-10-04T08:26:57.402Z,100730.06
2022-10-04T08:29:48.365Z,100727.12
2022-10-04T08:32:45.953Z,100723.66
2022-10-04T08:35:19.966Z,100729.00
2022-10-04T08:38:24.294Z,100737.38
2022-10-04T08:41:24.247Z,100732.03
2022-10-04T08:44:10.542Z,100737.12
2022-10-04T08:46:53.163Z,100745.00
2022-10-04T08:49:58.520Z,100751.81
2022-10-04T08:53:17.427Z,100747.16
2022-10-04T08:56:06.561Z,100749.16
2022-10-04T08:59:02.419Z,100757.09
2022-10-04T09:02:13.288Z,100747.94
2022-10-04T09:05:20.533Z,100762.94
2022-10-04T09:08:08.447Z,100769.88
2022-10-04T09:11:05.021Z,100755.31
2022-10-04T09:13:44.092Z,100757.66
2022-10-04T09:16:28.808Z,100769.22
2022-10-04T09:19:17.169Z,100717.09
2022-10-04T09:21:48.667Z,100765.41
2022-10-04T09:24:26.892Z,100770.72
2022-10-04T09:27:10.813Z,100780.16
2022-10-04T09:29:42.798Z,100780.69
2022-10-04T09:32:38.854Z,100785.72
2022-10-04T09:35:27.687Z,100766.88
2022-10-04T09:38:01.643Z,100773.94
2022-10-04T09:40:28.900Z,100790.22
2022-10-04T09:43:18.927Z,100776.91
2022-10-04T09:46:08.157Z,100775.38
2022-10-04T09:48:53.530Z,100760.38
2022-10-04T09:51:40.937Z,100767.91
2022-10-04T09:54:20.000Z,100759.16
2022-10-04T09:57:16.202Z,100764.31
2022-10-04T10:00:02.557Z,100789.22
2022-10-04T10:03:17.875Z,100771.81
2022-10-04T10:06:05.280Z,100781.81
2022-10-04T10:08:42.666Z,100793.09
2022-10-04T10:11:50.714Z,100764.12
2022-10-04T10:14:35.417Z,100781.88
2022-10-04T10:17:30.147Z,100784.47
2022-10-04T10:20:36.345Z,100779.28
2022-10-04T10:23:26.676Z,100780.09
2022-10-04T10:26:17.860Z,100779.78
2022-10-04T10:29:03.484Z,100788.06
2022-10-04T10:32:07.421Z,100789.53
2022-10-04T10:35:02.915Z,100775.91
2022-10-04T10:37:41.898Z,100772.87
2022-10-04T10:40:28.509Z,100770.62
2022-10-04T10:43:01.113Z,100769.47
2022-10-04T10:45:57.128Z,100779.53
2022-10-04T10:48:45.054Z,100775.78
2022-10-04T10:51:49.175Z,100784.97
2022-10-04T10:54:52.864Z,100785.19
2022-10-04T10:57:37.718Z,100780.22
2022-10-04T11:00:17.384Z,100779.47
2022-10-04T11:03:13.079Z,100766.78
2022-10-04T11:06:12.099Z,100784.81
2022-10-04T11:08:57.453Z,100790.84
2022-10-04T11:11:41.928Z,100785.81
2022-10-04T11:14:12.486Z,100775.94
2022-10-04T11:16:48.021Z,100777.78
2022-10-04T11:19:46.584Z,100778.88
2022-10-04T11:22:38.457Z,100779.81
2022-10-04T11:25:08.144Z,100791.62
2022-10-04T11:27:55.449Z,100786.81
2022-10-04T11:30:53.611Z,100784.12
2022-10-04T11:33:53.204Z,100779.53
2022-10-04T11:36:59.446Z,100786.00
2022-10-04T11:39:44.763Z,100790.34
2022-10-04T11:42:40.891Z,100794.56
2022-10-04T11:45:27.573Z,100797.97
2022-10-04T11:48:02.969Z,100794.03
2022-10-04T11:50:45.921Z,100767.97
2022-10-04T11:53:33.657Z,100786.69
2022-10-04T11:56:19.426Z,100786.75
2022-10-04T11:58:55.541Z,100796.69
2022-10-04T12:01:52.930Z,100789.34
2022-10-04T12:04:50.280Z,100796.69
2022-10-04T12:07:43.024Z,100794.38
2022-10-04T12:10:29.964Z,100795.41
2022-10-04T12:12:58.919Z,100796.34
2022-10-04T12:16:03.099Z,100790.53
2022-10-04T12:18:52.417Z,100794.69
2022-10-04T12:21:21.545Z,100790.81
2022-10-04T12:24:06.369Z,100783.88
2022-10-04T12:26:56.103Z,100790.28
2022-10-04T12:29:36.410Z,100795.44
2022-10-04T12:32:20.049Z,100797.28
2022-10-04T12:34:54.575Z,100766.50
2022-10-04T12:37:39.744Z,100793.78
2022-10-04T12:40:24.340Z,100791.88
2022-10-04T12:43:14.720Z,100798.12
2022-10-04T12:46:03.846Z,100793.37
2022-10-04T12:48:49.143Z,100794.06
2022-10-04T12:51:22.246Z,100798.94
2022-10-04T12:53:58.640Z,100790.88
2022-10-04T12:56:41.907Z,100799.09
2022-10-04T12:59:24.080Z,100801.44
2022-10-04T13:02:28.023Z,100802.84
2022-10-04T13:04:59.480Z,100800.47
2022-10-04T13:07:58.342Z,100788.50
2022-10-04T13:10:25.779Z,100810.94
2022-10-04T13:13:11.971Z,100800.31
2022-10-04T13:19:25.431Z,100789.78
2022-10-04T13:22:10.059Z,100814.38
2022-10-04T13:24:58.041Z,100805.16
2022-10-04T13:27:29.263Z,100817.41
2022-10-04T13:30:05.327Z,100810.09
2022-10-04T13:32:55.254Z,100814.62
2022-10-04T13:35:26.712Z,100812.97
2022-10-04T13:38:31.735Z,100814.75
2022-10-04T13:41:08.407Z,100811.78
2022-10-04T13:44:02.755Z,100824.75
2022-10-04T13:46:37.109Z,100830.91
2022-10-04T13:49:22.439Z,100831.53
2022-10-04T13:52:28.672Z,100815.22
2022-10-04T13:55:49.930Z,100830.94
2022-10-04T13:58:29.061Z,100838.03
2022-10-04T14:01:20.303Z,100821.97
2022-10-04T14:04:05.099Z,100847.34
2022-10-04T14:06:37.229Z,100845.19
2022-10-04T14:09:19.523Z,100817.34
2022-10-04T14:11:51.773Z,100843.53
2022-10-04T14:14:47.219Z,100848.91
2022-10-04T14:17:52.918Z,100849.09
2022-10-04T14:20:43.249Z,100852.97
2022-10-04T14:23:33.689Z,100862.62
2022-10-04T14:26:07.460Z,100861.88
2022-10-04T14:29:12.058Z,100863.28
2022-10-04T14:31:42.246Z,100871.22
2022-10-04T14:34:14.287Z,100864.69
2022-10-04T14:37:28.431Z,100878.63
2022-10-04T14:40:32.353Z,100883.06
2022-10-04T14:43:20.637Z,100888.97
2022-10-04T14:46:11.455Z,100885.72
2022-10-04T14:48:59.149Z,100890.94
2022-10-04T14:51:50.928Z,100888.00
2022-10-04T14:54:25.578Z,100890.69
2022-10-04T14:57:01.197Z,100893.34
2022-10-04T14:59:59.421Z,100893.97
2022-10-04T15:02:31.875Z,100895.81
2022-10-04T15:05:31.067Z,100901.47
2022-10-04T15:08:15.194Z,100900.00
2022-10-04T15:11:02.186Z,100892.69
2022-10-04T15:13:39.447Z,100918.56
2022-10-04T15:16:27.795Z,100923.12
2022-10-04T15:19:04.531Z,100925.91
2022-10-04T15:21:48.204Z,100931.28
2022-10-04T15:24:17.138Z,100934.91
2022-10-04T15:26:50.374Z,100940.62
2022-10-04T15:29:43.775Z,100937.03
2022-10-04T15:32:54.639Z,100951.66
2022-10-04T15:35:42.322Z,100947.09
2022-10-04T15:38:24.046Z,100953.19
2022-10-04T15:41:08.672Z,100958.56
2022-10-04T15:43:43.680Z,100964.16
2022-10-04T15:46:24.488Z,100971.78
2022-10-04T15:49:12.712Z,100964.72
2022-10-04T15:51:43.038Z,100970.56
2022-10-04T15:54:31.948Z,100979.75
2022-10-04T15:57:15.715Z,100981.63
2022-10-04T16:00:35.599Z,100980.78
2022-10-04T16:03:26.495Z,100979.84
2022-10-04T16:06:08.519Z,100995.53
2022-10-04T16:08:37.659Z,100988.59
2022-10-04T16:11:29.177Z,100996.72
2022-10-04T16:14:32.068Z,100999.47
2022-10-04T16:17:18.788Z,100993.31
2022-10-04T16:20:20.896Z,101005.28
2022-10-04T16:23:24.036Z,101010.75
2022-10-04T16:25:52.918Z,101014.75
2022-10-04T16:28:47.077Z,101022.38
2022-10-04T16:31:25.686Z,101024.72
2022-10-04T16:33:56.310Z,101027.59
2022-10-04T16:36:26.837Z,101032.38
2022-10-04T16:39:14.631Z,101041.09
2022-10-04T16:41:45.457Z,101035.97
2022-10-04T16:44:29.417Z,101041.66
2022-10-04T16:47:00.365Z,101042.66
2022-10-04T16:49:37.594Z,101041.81
2022-10-04T16:52:18.975Z,101028.94
2022-10-04T16:55:10.180Z,101040.69
2022-10-04T16:57:37.483Z,101040.63
2022-10-04T17:00:27.091Z,101038.06
2022-10-04T17:03:09.717Z,101048.13
2022-10-04T17:05:47.275Z,101018.62
2022-10-04T17:08:16.643Z,101041.38
2022-10-04T17:10:48.867Z,101062.25
2022-10-04T17:13:23.534Z,101061.81
2022-10-04T17:16:02.931Z,101063.22
2022-10-04T17:19:00.399Z,101065.38
2022-10-04T17:21:39.487Z,101064.16
2022-10-04T17:24:09.031Z,101067.34
2022-10-04T17:26:50.328Z,101071.19
2022-10-04T17:29:53.661Z,101062.38
2022-10-04T17:32:51.214Z,101076.03
2022-10-04T17:35:23.792Z,101075.66
2022-10-04T17:37:57.837Z,101081.28
2022-10-04T17:40:27.513Z,101080.44
2022-10-04T17:43:15.491Z,101083.34
2022-10-04T17:45:57.604Z,101088.94
2022-10-04T17:48:51.735Z,101081.69
2022-10-04T17:51:39.894Z,101087.84
2022-10-04T17:54:34.834Z,101087.44
2022-10-04T17:57:04.271Z,101068.50
2022-10-04T18:00:08.348Z,101096.12
2022-10-04T18:02:37.737Z,101102.47
2022-10-04T18:05:18.232Z,101106.88
2022-10-04T18:07:48.894Z,101109.13
2022-10-04T18:10:34.944Z,101112.53
2022-10-04T18:13:01.594Z,101112.84
2022-10-04T18:15:38.816Z,101121.87
2022-10-04T18:18:37.516Z,101127.59
2022-10-04T18:21:19.187Z,101128.56
2022-10-04T18:23:54.924Z,101135.31
2022-10-04T18:26:21.945Z,101134.94
2022-10-04T18:28:49.963Z,101137.31
2022-10-04T18:31:36.430Z,101148.25
2022-10-04T18:34:16.691Z,101137.56
2022-10-04T18:36:52.062Z,101146.19
2022-10-04T18:39:21.818Z,101134.28
2022-10-04T18:41:58.717Z,101122.56
2022-10-04T18:44:44.353Z,101139.81
2022-10-04T18:47:17.158Z,101161.81
2022-10-04T18:49:52.402Z,101158.16
2022-10-04T18:52:26.769Z,101152.13
2022-10-04T18:55:14.566Z,101158.06
2022-10-04T18:58:02.255Z,101166.50
2022-10-04T19:01:01.090Z,101169.13
2022-10-04T19:03:40.312Z,101176.34
2022-10-04T19:06:12.278Z,101169.53
2022-10-04T19:09:10.478Z,101177.50
2022-10-04T19:11:45.213Z,101180.38
2022-10-04T19:14:50.288Z,101186.22
2022-10-04T19:17:22.183Z,101180.94
2022-10-04T19:19:57.502Z,101203.00
2022-10-04T19:22:49.757Z,101208.72
2022-10-04T19:25:21.914Z,101213.37
2022-10-04T19:27:57.997Z,101209.16
2022-10-04T19:30:39.534Z,101216.22
2022-10-04T19:33:14.063Z,101224.94
2022-10-04T19:36:03.657Z,101225.53
2022-10-04T19:38:37.178Z,101226.31
2022-10-04T19:41:12.303Z,101233.16
2022-10-04T19:44:05.865Z,101233.78
2022-10-04T19:46:44.675Z,101234.41
2022-10-04T19:49:19.960Z,101239.66
2022-10-04T19:51:51.226Z,101226.47
2022-10-04T19:54:24.022Z,101228.06
2022-10-04T19:56:51.400Z,101243.09
2022-10-04T19:59:26.672Z,101242.41
2022-10-04T20:01:53.081Z,101230.34
2022-10-04T20:04:35.101Z,101246.69
2022-10-04T20:07:03.446Z,101245.03
2022-10-04T20:09:51.336Z,101245.19
2022-10-04T20:12:35.992Z,101249.03
2022-10-04T20:15:17.790Z,101249.22
2022-10-04T20:17:48.941Z,101244.59
2022-10-04T20:20:37.367Z,101234.06
2022-10-04T20:23:03.661Z,101258.59
2022-10-04T20:25:45.847Z,101265.75
2022-10-04T20:28:27.231Z,101271.13
2022-10-04T20:30:55.798Z,101268.09
2022-10-04T20:33:34.390Z,101254.06
2022-10-04T20:36:02.023Z,101273.72
2022-10-04T20:38:54.265Z,101272.81
2022-10-04T20:41:49.077Z,101279.28
2022-10-04T20:45:03.919Z,101280.28
2022-10-04T20:47:31.735Z,101294.25
2022-10-04T20:49:59.963Z,101281.19
2022-10-04T20:52:31.753Z,101291.66
2022-10-04T20:55:01.398Z,101293.59
2022-10-04T20:57:30.345Z,101287.53
2022-10-04T20:59:57.749Z,101294.50
2022-10-04T21:02:27.748Z,101261.78
2022-10-04T21:04:54.417Z,101299.28
2022-10-04T21:07:25.298Z,101303.91
2022-10-04T21:09:53.281Z,101301.59
2022-10-04T21:12:36.087Z,101299.28
2022-10-04T21:15:18.561Z,101307.53
2022-10-04T21:18:08.384Z,101306.19
2022-10-04T21:20:43.459Z,101317.78
2022-10-04T21:23:31.366Z,101296.81
2022-10-04T21:26:23.378Z,101320.00
2022-10-04T21:28:54.409Z,101321.09
2022-10-04T21:31:20.973Z,101326.31
2022-10-04T21:33:47.279Z,101321.78
2022-10-04T21:36:13.706Z,101319.38
2022-10-04T21:38:40.520Z,101327.22
2022-10-04T21:41:07.251Z,101304.09
2022-10-04T21:43:33.671Z,101334.44
2022-10-04T21:46:00.273Z,101321.16
2022-10-04T21:48:27.460Z,101340.91
2022-10-04T21:50:54.807Z,101336.81
2022-10-04T21:53:21.867Z,101335.34
2022-10-04T21:55:48.154Z,101338.22
2022-10-04T21:58:14.427Z,101338.37
2022-10-04T22:00:41.004Z,101312.44
2022-10-04T22:03:07.553Z,101343.97
2022-10-04T22:05:33.876Z,101333.94
2022-10-04T22:08:00.114Z,101349.59
2022-10-04T22:10:26.778Z,101360.13
2022-10-04T22:12:56.820Z,101354.19
2022-10-04T22:15:24.897Z,101341.53
2022-10-04T22:17:51.592Z,101329.97
2022-10-04T22:20:17.865Z,101358.91
2022-10-04T22:22:44.131Z,101359.81
2022-10-04T22:25:15.260Z,101362.56
2022-10-04T22:27:41.863Z,101368.63
2022-10-04T22:30:17.721Z,101363.66
2022-10-04T22:32:45.650Z,101365.28
2022-10-04T22:35:18.137Z,101354.63
2022-10-04T22:37:45.146Z,101365.06
2022-10-04T22:40:18.286Z,101373.03
2022-10-04T22:42:44.857Z,101374.84
2022-10-04T22:45:25.516Z,101374.09
2022-10-04T22:47:52.459Z,101367.28
2022-10-04T22:50:36.283Z,101374.34
2022-10-04T22:53:20.896Z,101366.66
2022-10-04T22:55:51.469Z,101368.63
2022-10-04T22:58:18.287Z,101365.28
2022-10-04T23:00:45.060Z,101363.25
2022-10-04T23:03:32.972Z,101369.19
2022-10-04T23:06:01.092Z,101377.03
2022-10-04T23:08:27.642Z,101363.81
2022-10-04T23:11:00.675Z,101374.94
2022-10-04T23:13:28.273Z,101383.56
2022-10-04T23:16:00.341Z,101358.97
2022-10-04T23:18:28.543Z,101397.41
2022-10-04T23:21:00.347Z,101406.16
2022-10-04T23:23:28.083Z,101389.19
2022-10-04T23:25:54.531Z,101402.94
2022-10-04T23:28:20.918Z,101396.31
2022-10-04T23:31:15.901Z,101395.63
2022-10-04T23:33:42.163Z,101407.50
2022-10-04T23:36:13.528Z,101405.03
2022-10-04T23:38:46.837Z,101413.03
2022-10-04T23:41:13.446Z,101409.50
2022-10-04T23:43:40.247Z,101419.06
2022-10-04T23:46:14.110Z,101415.66
2022-10-04T23:48:41.076Z,101401.47
2022-10-04T23:51:11.476Z,101401.41
2022-10-04T23:53:38.010Z,101423.59
2022-10-04T23:56:09.238Z,101421.69
2022-10-04T23:58:39.735Z,101420.16
